Time;durP1;ratioP1;P1;durP2;ratioP2;P2;SDS_P1;SDS_P2;PMS_P1;PMS_P2;Temp;Humidity;BMP_temperature;BMP_pressure;BME280_temperature;BME280_humidity;BME280_pressure;Samples;Min_cycle;Max_cycle;Signal;HPM_P1;HPM_P2
2020/12/05 00:01:39;;;;;;;8.57;6.07;;;4.10;97.20;;;;;;5055459;28;20170;-68
2020/12/05 00:04:04;;;;;;;7.60;5.30;;;4.00;97.30;;;;;;5055813;28;20511;-68
2020/12/05 00:06:30;;;;;;;3.87;3.57;;;3.90;97.50;;;;;;5055255;28;20184;-68
2020/12/05 00:08:55;;;;;;;7.80;3.50;;;3.90;97.70;;;;;;5055296;28;20286;-68
2020/12/05 00:11:28;;;;;;;7.73;4.57;;;3.70;97.60;;;;;;5055535;28;20172;-68
2020/12/05 00:13:54;;;;;;;6.65;4.00;;;3.70;98.00;;;;;;5055519;28;20192;-69
2020/12/05 00:16:20;;;;;;;3.13;2.80;;;3.70;98.20;;;;;;5055147;28;20257;-68
2020/12/05 00:18:47;;;;;;;4.40;4.00;;;3.70;98.30;;;;;;5055272;28;20690;-68
2020/12/05 00:21:18;;;;;;;5.97;4.00;;;3.70;98.40;;;;;;5053974;28;20410;-68
2020/12/05 00:23:44;;;;;;;3.22;3.03;;;3.70;98.50;;;;;;5055031;28;20196;-68
2020/12/05 00:26:14;;;;;;;3.60;3.27;;;3.70;98.50;;;;;;5054927;28;20182;-68
2020/12/05 00:28:39;;;;;;;2.65;2.35;;;3.70;98.50;;;;;;5055234;28;20930;-69
2020/12/05 00:31:05;;;;;;;3.50;3.00;;;3.50;99.00;;;;;;5055217;28;20170;-69
2020/12/05 00:33:30;;;;;;;2.60;2.40;;;3.50;99.20;;;;;;5055146;28;20169;-68
2020/12/05 00:35:56;;;;;;;2.40;2.20;;;3.80;99.10;;;;;;5054691;28;20166;-68
2020/12/05 00:38:21;;;;;;;1.60;1.50;;;3.90;98.60;;;;;;5054826;28;20173;-69
2020/12/05 00:40:47;;;;;;;2.83;2.63;;;4.00;98.30;;;;;;5054808;28;20185;-68
2020/12/05 00:43:13;;;;;;;4.53;2.40;;;4.00;98.20;;;;;;5054665;28;20180;-69
2020/12/05 00:45:38;;;;;;;2.13;2.00;;;4.00;98.10;;;;;;5054437;28;20174;-69
2020/12/05 00:48:04;;;;;;;2.67;2.47;;;4.00;98.40;;;;;;5054484;28;20193;-68
2020/12/05 00:50:29;;;;;;;2.03;1.93;;;4.00;98.00;;;;;;5054519;28;20655;-68
2020/12/05 00:52:55;;;;;;;2.17;1.90;;;4.10;97.90;;;;;;5054512;28;20252;-68
2020/12/05 00:55:21;;;;;;;4.10;1.80;;;4.00;97.90;;;;;;5054457;28;20253;-69
2020/12/05 00:57:46;;;;;;;1.57;1.47;;;3.90;98.10;;;;;;5054518;28;20232;-69
2020/12/05 01:00:15;;;;;;;3.20;1.00;;;3.80;98.30;;;;;;5054265;28;20576;-68
2020/12/05 01:02:41;;;;;;;1.40;1.00;;;3.90;98.30;;;;;;5054487;28;20253;-68
2020/12/05 01:05:06;;;;;;;0.90;0.90;;;3.80;98.20;;;;;;5054345;28;20679;-68
2020/12/05 01:07:32;;;;;;;0.97;0.80;;;3.90;98.20;;;;;;5052788;28;20259;-68
2020/12/05 01:09:58;;;;;;;0.70;0.70;;;3.90;98.10;;;;;;5054123;28;20242;-69
2020/12/05 01:12:24;;;;;;;0.50;0.50;;;4.00;97.90;;;;;;5054191;28;20168;-68
2020/12/05 01:14:50;;;;;;;0.52;0.52;;;3.90;97.80;;;;;;5054015;28;20174;-68
2020/12/05 01:17:21;;;;;;;0.70;0.70;;;3.90;97.90;;;;;;5054258;28;20199;-69
2020/12/05 01:19:47;;;;;;;0.95;0.95;;;3.90;98.00;;;;;;5053870;28;20186;-68
2020/12/05 01:22:13;;;;;;;1.33;1.17;;;3.90;98.10;;;;;;5053981;28;20178;-68
2020/12/05 01:24:38;;;;;;;1.03;1.03;;;3.80;98.20;;;;;;5053793;28;20207;-68
2020/12/05 01:27:04;;;;;;;1.27;1.20;;;3.80;98.10;;;;;;5053962;28;20196;-68
2020/12/05 01:29:29;;;;;;;1.07;1.07;;;3.80;98.30;;;;;;5053920;28;20241;-68
2020/12/05 01:31:55;;;;;;;0.60;0.60;;;3.90;98.30;;;;;;5053511;28;20169;-68
2020/12/05 01:34:20;;;;;;;0.70;0.70;;;3.80;97.80;;;;;;5053951;28;20174;-69
2020/12/05 01:36:46;;;;;;;0.63;0.63;;;3.70;97.70;;;;;;5053672;28;20163;-68
2020/12/05 01:39:12;;;;;;;0.90;0.60;;;3.80;97.80;;;;;;5053844;28;20219;-68
2020/12/05 01:41:38;;;;;;;0.50;0.50;;;3.80;97.70;;;;;;5053793;28;20448;-69
2020/12/05 01:44:04;;;;;;;0.80;0.80;;;3.90;97.80;;;;;;5053737;28;20172;-69
2020/12/05 01:46:39;;;;;;;0.68;0.68;;;3.80;97.70;;;;;;5053592;28;20397;-68
2020/12/05 01:49:07;;;;;;;0.55;0.55;;;3.60;97.50;;;;;;5053696;28;20569;-69
2020/12/05 01:51:35;;;;;;;0.60;0.60;;;3.60;98.00;;;;;;5053522;28;20169;-68
2020/12/05 01:54:01;;;;;;;0.60;0.60;;;3.40;98.10;;;;;;5053645;28;20267;-68
2020/12/05 01:56:27;;;;;;;0.50;0.50;;;3.30;98.30;;;;;;5053456;28;20204;-68
2020/12/05 01:58:54;;;;;;;0.50;0.50;;;3.20;98.40;;;;;;5053627;28;20428;-68
2020/12/05 02:01:26;;;;;;;0.70;0.70;;;3.10;98.50;;;;;;5053546;28;20183;-68
2020/12/05 02:03:58;;;;;;;0.70;0.70;;;3.10;98.60;;;;;;5053347;28;20223;-68
2020/12/05 02:06:29;;;;;;;0.40;0.40;;;3.10;98.80;;;;;;5053315;28;20192;-68
2020/12/05 02:09:16;;;;;;;0.40;0.40;;;3.20;98.50;;;;;;5053357;28;20204;-68
2020/12/05 02:11:56;;;;;;;0.40;0.40;;;3.20;98.50;;;;;;5053503;28;20172;-68
2020/12/05 02:14:25;;;;;;;0.40;0.40;;;3.30;98.30;;;;;;5053286;28;20175;-68
2020/12/05 02:16:54;;;;;;;0.40;0.40;;;3.20;98.00;;;;;;5053117;28;20169;-68
2020/12/05 02:19:22;;;;;;;1.48;0.40;;;3.20;98.30;;;;;;5053166;28;20199;-68
2020/12/05 02:21:53;;;;;;;0.40;0.40;;;3.40;98.30;;;;;;5053237;28;20257;-68
2020/12/05 02:24:18;;;;;;;0.40;0.40;;;3.40;98.30;;;;;;5053168;28;20192;-69
2020/12/05 02:26:44;;;;;;;0.50;0.50;;;3.30;98.20;;;;;;5053065;28;20173;-68
2020/12/05 02:29:10;;;;;;;0.50;0.50;;;3.40;98.10;;;;;;5053232;28;20239;-68
2020/12/05 02:31:37;;;;;;;1.00;1.00;;;3.40;98.00;;;;;;5053214;28;20393;-68
2020/12/05 02:34:04;;;;;;;0.50;0.50;;;3.30;98.00;;;;;;5051847;28;20498;-68
2020/12/05 02:36:34;;;;;;;0.50;0.50;;;3.20;98.00;;;;;;5052836;28;20176;-68
2020/12/05 02:39:08;;;;;;;0.52;0.52;;;3.20;98.30;;;;;;5053126;28;20200;-69
2020/12/05 02:41:39;;;;;;;0.80;0.80;;;3.20;98.20;;;;;;5053135;28;20182;-69
2020/12/05 02:44:05;;;;;;;0.70;0.70;;;3.30;98.40;;;;;;5052472;28;20670;-68
2020/12/05 02:46:31;;;;;;;0.80;0.80;;;3.40;98.30;;;;;;5056768;28;20187;-68
2020/12/05 02:48:56;;;;;;;1.05;1.05;;;3.40;98.20;;;;;;5056764;28;20672;-68
2020/12/05 02:51:22;;;;;;;0.83;0.70;;;3.40;98.10;;;;;;5056835;28;20175;-68
2020/12/05 02:53:48;;;;;;;0.50;0.50;;;3.50;98.10;;;;;;5056755;28;20624;-69
2020/12/05 02:56:18;;;;;;;0.80;0.50;;;3.50;97.90;;;;;;5056710;28;20162;-68
2020/12/05 02:58:46;;;;;;;0.50;0.50;;;3.60;97.80;;;;;;5056676;28;20618;-68
2020/12/05 03:01:12;;;;;;;0.45;0.45;;;3.40;97.60;;;;;;5056554;28;20226;-68
2020/12/05 03:03:38;;;;;;;0.40;0.40;;;3.50;97.60;;;;;;5056677;28;20176;-68
2020/12/05 03:06:04;;;;;;;0.43;0.43;;;3.50;97.60;;;;;;5056319;28;20169;-69
2020/12/05 03:08:30;;;;;;;0.40;0.40;;;3.40;97.60;;;;;;5056409;28;20584;-68
2020/12/05 03:10:55;;;;;;;0.40;0.40;;;3.40;97.60;;;;;;5056299;28;20652;-69
2020/12/05 03:13:21;;;;;;;0.30;0.30;;;3.50;97.70;;;;;;5054278;28;20178;-69
2020/12/05 03:15:47;;;;;;;1.00;0.50;;;3.60;97.70;;;;;;5056079;28;20200;-68
2020/12/05 03:18:12;;;;;;;0.43;0.43;;;3.60;97.50;;;;;;5056405;28;20172;-69
2020/12/05 03:20:38;;;;;;;0.60;0.60;;;3.60;97.50;;;;;;5055886;28;20173;-68
2020/12/05 03:23:04;;;;;;;0.40;0.40;;;3.70;97.40;;;;;;5055950;28;20177;-69
2020/12/05 03:25:29;;;;;;;0.77;0.60;;;3.60;97.30;;;;;;5056468;28;20178;-68
2020/12/05 03:27:55;;;;;;;0.50;0.50;;;3.60;97.50;;;;;;5056208;28;20200;-69
2020/12/05 03:30:21;;;;;;;0.50;0.50;;;3.70;97.60;;;;;;5056455;28;20208;-68
2020/12/05 03:32:47;;;;;;;0.63;0.57;;;3.70;97.40;;;;;;5056144;28;20176;-69
2020/12/05 03:35:13;;;;;;;1.10;0.70;;;3.70;97.20;;;;;;5055851;28;20165;-68
2020/12/05 03:37:38;;;;;;;1.93;1.00;;;3.60;97.30;;;;;;5056041;28;20220;-68
2020/12/05 03:40:05;;;;;;;0.80;0.50;;;3.60;97.40;;;;;;5055866;28;20186;-68
2020/12/05 03:42:31;;;;;;;0.90;0.75;;;3.60;97.40;;;;;;5056010;28;20169;-68
2020/12/05 03:44:57;;;;;;;1.57;0.77;;;3.50;97.50;;;;;;5055747;28;20518;-69
2020/12/05 03:47:22;;;;;;;0.87;0.87;;;3.60;97.70;;;;;;5055664;28;20184;-68
2020/12/05 03:49:50;;;;;;;0.70;0.63;;;3.70;97.50;;;;;;5055702;28;20583;-68
2020/12/05 03:52:15;;;;;;;0.73;0.70;;;3.80;97.40;;;;;;5055716;28;20187;-68
2020/12/05 03:54:42;;;;;;;0.63;0.63;;;3.80;97.20;;;;;;5055217;28;20531;-68
2020/12/05 03:57:07;;;;;;;0.88;0.88;;;3.70;97.00;;;;;;5055740;28;20403;-68
2020/12/05 03:59:33;;;;;;;0.77;0.77;;;3.70;97.10;;;;;;5055460;28;20200;-69
2020/12/05 04:01:59;;;;;;;0.60;0.60;;;3.70;97.10;;;;;;5055640;28;20262;-68
2020/12/05 04:04:25;;;;;;;1.73;0.50;;;3.70;96.90;;;;;;5055631;28;20168;-68
2020/12/05 04:06:51;;;;;;;0.50;0.50;;;3.50;96.80;;;;;;5055314;28;20171;-68
2020/12/05 04:09:18;;;;;;;1.92;1.83;;;3.50;97.10;;;;;;5055103;28;20206;-68
2020/12/05 04:11:44;;;;;;;1.57;1.47;;;3.50;97.30;;;;;;5055431;28;20183;-68
2020/12/05 04:14:10;;;;;;;2.70;1.67;;;3.60;97.30;;;;;;5055446;28;20395;-69
2020/12/05 04:16:37;;;;;;;0.88;0.88;;;3.60;97.30;;;;;;5055259;28;20398;-68
2020/12/05 04:19:04;;;;;;;1.33;1.20;;;3.60;97.10;;;;;;5055271;28;20194;-69
2020/12/05 04:21:30;;;;;;;1.30;1.20;;;3.70;97.20;;;;;;5055179;28;20542;-68
2020/12/05 04:23:55;;;;;;;1.23;1.13;;;3.60;97.10;;;;;;5055126;28;20198;-68
2020/12/05 04:26:22;;;;;;;0.90;0.90;;;3.60;97.20;;;;;;5055003;28;20213;-69
2020/12/05 04:28:48;;;;;;;0.70;0.70;;;3.60;97.50;;;;;;5054950;28;20208;-68
2020/12/05 04:31:15;;;;;;;0.60;0.60;;;3.60;97.60;;;;;;5055218;28;20249;-69
2020/12/05 04:33:41;;;;;;;1.23;1.05;;;3.70;97.60;;;;;;5054909;28;20238;-69
2020/12/05 04:36:07;;;;;;;1.33;0.70;;;3.80;97.50;;;;;;5054960;28;20172;-68
2020/12/05 04:38:32;;;;;;;0.67;0.67;;;3.90;97.20;;;;;;5054945;28;20246;-68
2020/12/05 04:40:59;;;;;;;0.60;0.60;;;3.90;97.20;;;;;;5054815;28;20419;-69
2020/12/05 04:43:25;;;;;;;0.57;0.57;;;3.90;97.10;;;;;;5055018;28;20221;-69
2020/12/05 04:45:52;;;;;;;0.50;0.50;;;3.90;97.20;;;;;;5054555;28;20174;-68
2020/12/05 04:48:18;;;;;;;0.77;0.77;;;3.80;97.00;;;;;;5054645;28;20199;-68
2020/12/05 04:50:46;;;;;;;0.73;0.73;;;3.80;97.20;;;;;;5055021;28;20217;-68
2020/12/05 04:53:22;;;;;;;0.65;0.65;;;3.80;97.30;;;;;;5054655;28;20171;-69
2020/12/05 04:55:48;;;;;;;0.90;0.90;;;3.80;97.30;;;;;;5054454;28;20307;-69
2020/12/05 04:58:22;;;;;;;0.90;0.90;;;3.90;97.30;;;;;;5054258;28;20610;-68
2020/12/05 05:00:53;;;;;;;1.42;1.40;;;3.90;97.20;;;;;;5053425;28;20410;-68
2020/12/05 05:03:21;;;;;;;1.02;1.02;;;4.00;97.20;;;;;;5054447;28;20188;-68
2020/12/05 05:05:48;;;;;;;1.25;0.82;;;3.90;97.20;;;;;;5054341;28;20176;-68
2020/12/05 05:08:15;;;;;;;1.30;1.08;;;4.00;97.20;;;;;;5053458;28;20194;-68
2020/12/05 05:10:41;;;;;;;1.00;1.00;;;4.00;97.20;;;;;;5054212;28;20169;-69
2020/12/05 05:13:13;;;;;;;1.40;1.30;;;4.00;97.30;;;;;;5054406;28;20587;-68
2020/12/05 05:15:40;;;;;;;1.17;1.17;;;4.00;97.20;;;;;;5054032;28;20169;-68
2020/12/05 05:18:06;;;;;;;0.88;0.70;;;4.00;97.20;;;;;;5054141;28;20262;-69
2020/12/05 05:20:43;;;;;;;1.60;1.23;;;4.00;97.10;;;;;;5053771;28;20267;-68
2020/12/05 05:23:19;;;;;;;0.60;0.60;;;4.00;97.30;;;;;;5054116;28;20396;-69
2020/12/05 05:25:53;;;;;;;0.80;0.80;;;3.90;97.20;;;;;;5053856;28;20178;-69
2020/12/05 05:28:26;;;;;;;0.80;0.80;;;3.90;97.50;;;;;;5053833;28;20209;-68
2020/12/05 05:31:17;;;;;;;0.90;0.90;;;3.90;97.50;;;;;;5053849;28;20640;-68
2020/12/05 05:33:50;;;;;;;0.95;0.80;;;4.00;97.50;;;;;;5054220;28;20169;-68
2020/12/05 05:36:23;;;;;;;2.35;0.90;;;4.10;97.50;;;;;;5053669;28;20203;-68
2020/12/05 05:39:16;;;;;;;1.10;0.85;;;4.10;97.40;;;;;;5053806;28;20285;-68
2020/12/05 05:41:52;;;;;;;0.70;0.70;;;4.10;97.30;;;;;;5053361;28;20179;-68
2020/12/05 05:44:20;;;;;;;0.73;0.73;;;4.10;97.30;;;;;;5053394;28;20181;-68
2020/12/05 05:46:52;;;;;;;0.77;0.68;;;4.20;97.30;;;;;;5053519;28;20186;-68
2020/12/05 05:49:32;;;;;;;0.47;0.47;;;4.20;97.20;;;;;;5053315;28;20204;-69
2020/12/05 05:52:03;;;;;;;1.48;1.38;;;4.10;97.00;;;;;;5053741;28;20578;-68
2020/12/05 05:54:31;;;;;;;0.70;0.70;;;4.10;97.20;;;;;;5053707;28;20171;-68
2020/12/05 05:57:05;;;;;;;1.55;1.42;;;4.00;97.30;;;;;;5053384;28;20655;-69
2020/12/05 05:59:32;;;;;;;1.45;1.35;;;4.00;97.30;;;;;;5053632;28;20197;-69
2020/12/05 06:01:58;;;;;;;1.85;1.70;;;4.10;97.50;;;;;;5053457;28;20647;-68
2020/12/05 06:04:35;;;;;;;1.80;1.70;;;4.10;97.40;;;;;;5053343;28;20525;-68
2020/12/05 06:07:04;;;;;;;1.42;1.30;;;4.10;97.40;;;;;;5053394;28;20196;-68
2020/12/05 06:09:41;;;;;;;2.10;1.30;;;4.10;97.40;;;;;;5053254;28;20221;-69
2020/12/05 06:12:09;;;;;;;1.88;1.77;;;4.20;97.40;;;;;;5053521;28;20181;-69
2020/12/05 06:14:35;;;;;;;0.98;0.95;;;4.20;97.30;;;;;;5053140;28;20599;-68
2020/12/05 06:17:07;;;;;;;1.13;1.13;;;4.10;97.40;;;;;;5053271;28;20169;-68
2020/12/05 06:19:33;;;;;;;2.00;1.67;;;4.10;97.50;;;;;;5056472;28;20246;-69
2020/12/05 06:21:59;;;;;;;5.43;1.25;;;4.10;97.60;;;;;;5057378;28;20196;-69
2020/12/05 06:24:50;;;;;;;1.88;1.77;;;4.10;97.60;;;;;;5057366;28;20552;-69
2020/12/05 06:27:16;;;;;;;0.68;0.68;;;4.20;97.60;;;;;;5057141;28;20225;-69
2020/12/05 06:29:42;;;;;;;1.35;0.60;;;4.20;97.50;;;;;;5055933;28;20203;-71
2020/12/05 06:32:08;;;;;;;0.80;0.80;;;4.20;97.30;;;;;;5057075;28;20223;-69
2020/12/05 06:34:42;;;;;;;0.60;0.60;;;4.20;97.20;;;;;;5056495;28;20178;-68
2020/12/05 06:37:30;;;;;;;0.60;0.60;;;4.10;97.30;;;;;;5057350;28;20445;-67
2020/12/05 06:40:05;;;;;;;0.80;0.80;;;3.80;97.70;;;;;;5058058;28;20196;-67
2020/12/05 06:42:45;;;;;;;0.70;0.70;;;3.80;97.90;;;;;;5057660;28;20175;-67
2020/12/05 06:45:25;;;;;;;0.70;0.70;;;3.70;97.70;;;;;;5056806;28;20177;-66
2020/12/05 06:47:53;;;;;;;0.93;0.80;;;3.60;97.50;;;;;;5056142;28;20196;-67
2020/12/05 06:50:35;;;;;;;0.65;0.65;;;3.50;97.30;;;;;;5056176;28;20190;-68
2020/12/05 06:53:01;;;;;;;1.48;1.45;;;3.30;97.30;;;;;;5057161;28;20178;-67
2020/12/05 06:55:32;;;;;;;0.70;0.60;;;3.20;97.60;;;;;;5056690;28;20168;-68
2020/12/05 06:58:06;;;;;;;0.65;0.63;;;3.10;97.60;;;;;;5056863;28;20425;-68
2020/12/05 07:00:38;;;;;;;0.52;0.52;;;3.00;98.00;;;;;;5057203;28;20204;-68
2020/12/05 07:03:09;;;;;;;0.98;0.98;;;3.00;98.20;;;;;;5057165;28;20171;-67
2020/12/05 07:05:38;;;;;;;1.55;1.45;;;2.90;98.10;;;;;;5055348;28;20259;-68
2020/12/05 07:08:27;;;;;;;3.42;2.38;;;2.90;98.10;;;;;;5056423;28;20195;-67
2020/12/05 07:10:55;;;;;;;1.58;1.48;;;2.80;98.30;;;;;;5056759;28;20664;-68
2020/12/05 07:13:29;;;;;;;1.30;1.20;;;2.70;98.30;;;;;;5056974;28;20172;-68
2020/12/05 07:16:09;;;;;;;2.22;2.10;;;2.50;98.50;;;;;;5056376;28;20180;-67
2020/12/05 07:18:38;;;;;;;1.40;1.30;;;2.50;98.70;;;;;;5056613;28;20263;-68
2020/12/05 07:21:05;;;;;;;1.05;0.95;;;2.50;98.70;;;;;;5056590;28;20171;-68
2020/12/05 07:23:31;;;;;;;2.13;1.77;;;2.40;98.90;;;;;;5056363;28;20214;-68
2020/12/05 07:25:58;;;;;;;2.23;1.50;;;2.40;98.80;;;;;;5056209;28;20179;-67
2020/12/05 07:28:24;;;;;;;2.92;2.20;;;2.50;98.80;;;;;;5056708;28;20475;-66
2020/12/05 07:30:50;;;;;;;1.70;1.37;;;2.60;98.40;;;;;;5055569;28;20248;-67
2020/12/05 07:33:18;;;;;;;1.42;1.33;;;2.70;98.30;;;;;;5056291;28;20182;-67
2020/12/05 07:35:44;;;;;;;1.77;1.65;;;2.80;98.10;;;;;;5055822;28;20171;-66
2020/12/05 07:38:15;;;;;;;2.03;1.83;;;2.80;97.50;;;;;;5054994;28;20174;-67
2020/12/05 07:40:42;;;;;;;2.05;1.90;;;2.90;97.10;;;;;;5056601;28;20624;-67
2020/12/05 07:43:15;;;;;;;2.45;2.03;;;2.90;97.00;;;;;;5055856;28;20539;-67
2020/12/05 07:45:42;;;;;;;1.98;1.80;;;3.00;97.10;;;;;;5056026;28;20220;-67
2020/12/05 07:48:15;;;;;;;4.82;3.28;;;3.00;96.80;;;;;;5055921;28;20648;-67
2020/12/05 07:50:41;;;;;;;4.45;3.78;;;3.10;96.80;;;;;;5056236;28;20167;-67
2020/12/05 07:53:21;;;;;;;5.38;4.07;;;3.10;96.60;;;;;;5055692;28;20179;-67
2020/12/05 07:55:48;;;;;;;6.45;4.25;;;3.20;96.50;;;;;;5055831;28;20614;-67
2020/12/05 07:58:14;;;;;;;7.40;5.43;;;3.20;96.20;;;;;;5055436;28;20258;-67
2020/12/05 08:00:40;;;;;;;5.45;4.53;;;3.20;96.20;;;;;;5053987;28;20167;-67
2020/12/05 08:03:24;;;;;;;4.07;3.77;;;3.10;96.20;;;;;;5055631;28;20278;-67
2020/12/05 08:06:27;;;;;;;4.43;4.03;;;3.10;96.10;;;;;;5055295;28;20180;-67
2020/12/05 08:09:03;;;;;;;3.65;3.22;;;3.20;96.40;;;;;;5054555;28;20794;-67
2020/12/05 08:11:44;;;;;;;6.40;5.50;;;3.40;96.10;;;;;;5054944;28;20183;-67
2020/12/05 08:14:12;;;;;;;4.90;4.40;;;3.50;95.60;;;;;;5055711;28;20171;-66
2020/12/05 08:16:39;;;;;;;4.05;3.42;;;3.60;95.30;;;;;;5054359;28;20202;-66
2020/12/05 08:19:06;;;;;;;7.03;4.90;;;3.70;95.00;;;;;;5054499;28;20200;-67
2020/12/05 08:21:34;;;;;;;3.33;3.03;;;3.70;94.70;;;;;;5054754;28;20169;-67
2020/12/05 08:24:10;;;;;;;4.85;3.80;;;3.80;94.80;;;;;;5054823;28;20283;-67
2020/12/05 08:26:37;;;;;;;2.53;2.33;;;3.90;94.90;;;;;;5054938;28;20579;-67
2020/12/05 08:29:05;;;;;;;7.53;3.25;;;3.80;95.00;;;;;;5055070;28;20234;-67
2020/12/05 08:31:31;;;;;;;4.00;2.92;;;4.00;95.00;;;;;;5054941;28;20170;-66
2020/12/05 08:33:57;;;;;;;8.98;6.20;;;4.20;94.60;;;;;;5055022;28;20169;-67
2020/12/05 08:36:31;;;;;;;9.50;6.17;;;4.40;94.20;;;;;;5054045;28;20180;-68
2020/12/05 08:39:05;;;;;;;10.00;7.60;;;4.40;93.70;;;;;;5055150;28;20200;-69
2020/12/05 08:41:50;;;;;;;9.43;5.75;;;4.50;93.40;;;;;;5053443;28;20553;-70
2020/12/05 08:44:18;;;;;;;6.75;5.07;;;4.40;93.00;;;;;;5054872;28;20499;-67
2020/12/05 08:46:45;;;;;;;6.95;4.35;;;4.30;93.00;;;;;;5054907;28;20611;-69
2020/12/05 08:49:19;;;;;;;3.88;3.53;;;4.30;93.10;;;;;;5054973;28;20216;-69
2020/12/05 08:51:52;;;;;;;5.80;4.72;;;4.40;93.20;;;;;;5055229;28;20256;-67
2020/12/05 08:54:18;;;;;;;13.30;9.32;;;4.50;93.50;;;;;;5054750;28;20196;-67
2020/12/05 08:56:45;;;;;;;11.90;9.52;;;4.60;93.40;;;;;;5054367;28;20183;-68
2020/12/05 08:59:11;;;;;;;12.85;7.90;;;4.70;93.20;;;;;;5054342;28;20655;-68
2020/12/05 09:01:41;;;;;;;7.43;6.72;;;4.60;92.80;;;;;;5054508;28;20186;-70
2020/12/05 09:04:07;;;;;;;12.10;10.60;;;4.60;92.90;;;;;;5054717;28;20184;-69
2020/12/05 09:06:33;;;;;;;12.23;9.70;;;4.80;93.00;;;;;;5053515;28;20170;-72
2020/12/05 09:08:59;;;;;;;17.20;8.70;;;4.90;93.00;;;;;;5054244;28;20288;-69
2020/12/05 09:11:25;;;;;;;15.13;8.90;;;5.00;92.90;;;;;;5053363;28;20405;-69
2020/12/05 09:13:52;;;;;;;6.65;5.47;;;5.00;92.40;;;;;;5054263;28;20412;-71
2020/12/05 09:16:18;;;;;;;21.90;13.18;;;5.00;92.30;;;;;;5054015;28;20192;-70
2020/12/05 09:18:50;;;;;;;10.68;9.32;;;5.10;92.60;;;;;;5054391;28;20280;-70
2020/12/05 09:21:20;;;;;;;11.27;7.85;;;5.00;92.60;;;;;;5052913;28;20235;-73
2020/12/05 09:24:01;;;;;;;16.55;9.98;;;5.00;93.00;;;;;;5054010;28;20233;-72
2020/12/05 09:26:27;;;;;;;11.65;7.60;;;5.10;93.00;;;;;;5054237;28;20214;-72
2020/12/05 09:28:53;;;;;;;6.60;4.55;;;5.20;93.20;;;;;;5054275;28;20652;-72
2020/12/05 09:31:20;;;;;;;5.95;4.57;;;5.30;92.90;;;;;;5053534;28;20555;-72
2020/12/05 09:33:45;;;;;;;4.20;3.20;;;5.50;93.00;;;;;;5053899;28;20220;-72
2020/12/05 09:36:11;;;;;;;4.53;3.07;;;5.60;93.00;;;;;;5053832;28;20166;-72
2020/12/05 09:38:37;;;;;;;13.00;11.70;;;5.50;92.90;;;;;;5053877;28;20193;-69
2020/12/05 09:41:02;;;;;;;18.53;16.03;;;5.70;92.80;;;;;;5054311;28;20170;-72
2020/12/05 09:43:28;;;;;;;13.07;11.53;;;5.70;92.20;;;;;;5054037;28;20520;-70
2020/12/05 09:45:54;;;;;;;13.77;10.50;;;5.70;92.30;;;;;;5053632;28;20668;-73
2020/12/05 09:48:20;;;;;;;16.07;12.10;;;5.80;92.50;;;;;;5053683;28;20281;-73
2020/12/05 09:50:46;;;;;;;8.77;7.27;;;6.00;92.50;;;;;;5053736;28;20886;-72
2020/12/05 09:53:12;;;;;;;3.05;2.55;;;6.00;92.60;;;;;;5053575;28;20408;-71
2020/12/05 09:55:38;;;;;;;2.20;2.10;;;6.00;92.00;;;;;;5053445;28;20189;-72
2020/12/05 09:58:03;;;;;;;1.53;1.43;;;5.90;92.10;;;;;;5053494;28;20182;-73
2020/12/05 10:00:29;;;;;;;1.63;1.43;;;5.90;92.20;;;;;;5053751;28;20194;-70
2020/12/05 10:02:55;;;;;;;1.70;1.58;;;6.00;92.40;;;;;;5053616;28;20643;-73
2020/12/05 10:05:21;;;;;;;1.70;1.60;;;6.10;92.40;;;;;;5053577;28;20174;-71
2020/12/05 10:07:47;;;;;;;1.10;1.10;;;6.20;91.90;;;;;;5053662;28;20259;-70
2020/12/05 10:10:13;;;;;;;1.13;1.13;;;6.30;92.10;;;;;;5053786;28;20656;-72
2020/12/05 10:12:44;;;;;;;2.30;1.58;;;6.30;92.20;;;;;;5053556;28;20768;-72
2020/12/05 10:15:13;;;;;;;1.13;1.13;;;6.40;92.00;;;;;;5053751;28;20204;-72
2020/12/05 10:17:40;;;;;;;1.50;1.40;;;6.40;91.80;;;;;;5053783;28;20170;-73
2020/12/05 10:20:06;;;;;;;1.33;1.10;;;6.50;91.60;;;;;;5052790;28;20194;-71
2020/12/05 10:22:32;;;;;;;2.35;1.45;;;6.30;91.80;;;;;;5053590;28;20170;-72
2020/12/05 10:24:58;;;;;;;0.93;0.93;;;6.30;91.80;;;;;;5053208;28;20182;-73
2020/12/05 10:27:23;;;;;;;0.90;0.80;;;6.30;91.60;;;;;;5053767;28;20167;-72
2020/12/05 10:29:49;;;;;;;1.90;1.80;;;6.40;91.30;;;;;;5053353;28;20428;-69
2020/12/05 10:32:15;;;;;;;2.27;1.77;;;6.40;90.80;;;;;;5053190;28;20222;-71
2020/12/05 10:34:41;;;;;;;4.65;4.15;;;6.20;90.60;;;;;;5051718;28;20640;-70
2020/12/05 10:37:06;;;;;;;1.70;1.57;;;6.30;91.20;;;;;;5053481;28;20196;-70
2020/12/05 10:39:32;;;;;;;1.67;1.50;;;6.40;91.40;;;;;;5053038;28;20192;-71
2020/12/05 10:41:58;;;;;;;1.90;1.67;;;6.60;91.20;;;;;;5053754;28;20174;-71
2020/12/05 10:44:24;;;;;;;1.70;1.60;;;6.70;91.00;;;;;;5053228;28;20246;-73
2020/12/05 10:46:49;;;;;;;1.20;1.20;;;6.80;91.00;;;;;;5052997;28;20166;-71
2020/12/05 10:49:19;;;;;;;1.57;1.47;;;6.80;90.80;;;;;;5053029;28;20202;-72
2020/12/05 10:51:46;;;;;;;1.67;1.55;;;6.70;91.30;;;;;;5053532;28;20532;-71
2020/12/05 10:54:12;;;;;;;1.45;1.35;;;6.80;91.30;;;;;;5053440;28;20178;-70
2020/12/05 10:56:40;;;;;;;1.57;1.50;;;6.90;90.90;;;;;;5053061;28;20166;-71
2020/12/05 10:59:06;;;;;;;1.58;1.48;;;7.10;91.10;;;;;;5053565;28;20435;-70
2020/12/05 11:01:32;;;;;;;1.73;1.55;;;7.20;90.80;;;;;;5053022;28;20265;-69
2020/12/05 11:03:57;;;;;;;3.33;1.80;;;7.30;90.60;;;;;;5053162;28;20253;-71
2020/12/05 11:06:25;;;;;;;1.57;1.27;;;7.30;90.40;;;;;;5055531;28;20541;-71
2020/12/05 11:08:51;;;;;;;2.15;1.65;;;7.30;89.90;;;;;;5056636;28;20194;-71
2020/12/05 11:11:17;;;;;;;2.35;1.88;;;7.30;90.00;;;;;;5056957;28;20253;-69
2020/12/05 11:13:43;;;;;;;2.67;1.38;;;7.20;90.00;;;;;;5056565;28;20166;-71
2020/12/05 11:16:09;;;;;;;1.57;1.43;;;7.20;90.30;;;;;;5056344;28;20182;-70
2020/12/05 11:18:34;;;;;;;2.60;1.50;;;6.90;90.20;;;;;;5056582;28;20273;-70
2020/12/05 11:21:00;;;;;;;1.90;1.60;;;7.00;90.10;;;;;;5056511;28;20308;-71
2020/12/05 11:23:26;;;;;;;3.03;1.77;;;6.80;90.10;;;;;;5056530;28;20611;-69
2020/12/05 11:25:52;;;;;;;2.67;1.87;;;6.90;90.40;;;;;;5056231;28;20628;-71
2020/12/05 11:28:17;;;;;;;1.90;1.60;;;6.50;90.60;;;;;;5056746;28;20460;-69
2020/12/05 11:30:43;;;;;;;2.27;1.77;;;6.30;90.70;;;;;;5056629;28;20170;-69
2020/12/05 11:33:08;;;;;;;1.57;1.47;;;6.30;91.10;;;;;;5056579;28;20178;-69
2020/12/05 11:35:35;;;;;;;1.73;1.10;;;6.30;91.40;;;;;;5056130;28;20201;-69
2020/12/05 11:38:01;;;;;;;2.35;1.80;;;6.40;91.50;;;;;;5056583;28;20521;-72
2020/12/05 11:40:27;;;;;;;2.40;1.33;;;6.50;91.50;;;;;;5055381;28;20204;-69
2020/12/05 11:42:52;;;;;;;2.37;1.70;;;6.50;91.60;;;;;;5056390;28;20220;-70
2020/12/05 11:45:18;;;;;;;6.93;5.30;;;6.60;91.50;;;;;;5056145;28;20178;-70
2020/12/05 11:47:43;;;;;;;3.07;2.73;;;6.60;91.60;;;;;;5056090;28;20178;-72
2020/12/05 11:50:09;;;;;;;2.37;1.53;;;6.60;91.30;;;;;;5056135;28;20640;-70
2020/12/05 11:52:35;;;;;;;1.73;1.63;;;6.70;91.10;;;;;;5056295;28;20166;-70
2020/12/05 11:55:00;;;;;;;4.50;3.90;;;6.70;91.20;;;;;;5055817;28;20253;-69
2020/12/05 11:57:26;;;;;;;1.57;1.47;;;6.90;91.50;;;;;;5056371;28;20181;-70
2020/12/05 11:59:51;;;;;;;1.70;1.60;;;7.10;91.40;;;;;;5055720;28;20193;-69
2020/12/05 12:02:17;;;;;;;1.40;1.30;;;7.30;91.40;;;;;;5055917;28;20166;-71
2020/12/05 12:04:42;;;;;;;1.47;1.37;;;7.60;90.90;;;;;;5055695;28;20166;-71
2020/12/05 12:07:08;;;;;;;2.70;2.30;;;7.90;90.40;;;;;;5055295;28;20655;-71
2020/12/05 12:09:34;;;;;;;8.10;7.30;;;8.00;89.00;;;;;;5055544;28;20212;-73
2020/12/05 12:12:00;;;;;;;2.10;1.87;;;8.10;87.90;;;;;;5056131;28;20178;-71
2020/12/05 12:14:26;;;;;;;2.22;2.05;;;8.10;87.90;;;;;;5055530;28;20755;-72
2020/12/05 12:16:52;;;;;;;2.67;2.17;;;8.10;88.10;;;;;;5055240;28;20173;-71
2020/12/05 12:19:18;;;;;;;4.47;4.07;;;8.00;87.80;;;;;;5055611;28;20191;-70
2020/12/05 12:21:43;;;;;;;3.97;3.67;;;8.10;88.80;;;;;;5055448;28;20171;-72
2020/12/05 12:24:09;;;;;;;4.20;2.90;;;8.10;89.00;;;;;;5055194;28;20425;-70
2020/12/05 12:26:35;;;;;;;10.00;8.13;;;8.40;88.50;;;;;;5055022;28;20167;-72
2020/12/05 12:29:00;;;;;;;4.03;3.63;;;8.50;87.80;;;;;;5055391;28;20680;-73
2020/12/05 12:31:26;;;;;;;3.17;2.20;;;8.50;86.70;;;;;;5055359;28;20492;-70
2020/12/05 12:33:52;;;;;;;4.13;2.95;;;8.50;86.80;;;;;;5055511;28;20168;-72
2020/12/05 12:36:18;;;;;;;2.53;2.33;;;8.50;87.20;;;;;;5054960;28;20171;-71
2020/12/05 12:38:45;;;;;;;3.40;3.15;;;8.30;86.80;;;;;;5055151;28;20197;-69
2020/12/05 12:41:19;;;;;;;2.22;2.13;;;8.20;87.60;;;;;;5055596;28;20170;-70
2020/12/05 12:43:45;;;;;;;2.25;2.05;;;8.10;88.20;;;;;;5055133;28;20206;-72
2020/12/05 12:46:12;;;;;;;2.85;2.20;;;8.00;88.90;;;;;;5054934;28;20257;-72
2020/12/05 12:48:39;;;;;;;4.47;4.18;;;7.90;89.10;;;;;;5054789;28;20230;-69
2020/12/05 12:51:09;;;;;;;3.40;3.00;;;7.60;89.90;;;;;;5054675;28;20261;-72
2020/12/05 12:53:36;;;;;;;2.80;2.13;;;7.30;90.30;;;;;;5055386;28;20162;-72
2020/12/05 12:56:03;;;;;;;2.92;2.33;;;7.40;90.80;;;;;;5053323;28;20174;-70
2020/12/05 13:01:01;;;;;;;1.63;1.52;;;7.10;91.00;;;;;;5055031;28;20179;-72
2020/12/05 13:03:27;;;;;;;3.00;2.60;;;7.10;91.20;;;;;;5055012;28;20178;-70